Центральный

Карта отелей и гостиниц, располагающихся рядом с аэропортом Центральный :

Центральный
Омск
Омская область 54° 58' 1.8012" N, 73° 18' 36.9" E
Код аэродрома ИКАО
UNOO
Код аэродрома RU
УНОО
Координаты
N54.96717° E073.31025°
Превышение над уровнем моря
95
Основная полоса
07L/25R
Курс магнитный
065,1/245,1
Длина основной ВПП
2837
Ширина основной ВПП
75
Покрытие основной ВПП
Нетвёрдое (грунт)
Освещение ВПП
Постоянное
Тип: 
Аэродром
Класс аэродрома: 
Международный
Принадлежность: 
ГА
Статус: 
Действующий
Сайт: 
http://www.aeroomsk.ru/
E-mail аэродрома: 
office@aeroomsk.ru
Страна: 
Россия
Регион: 
Омская область
Город: 
Омск
Дополнительная информация: 
Оператор: Открытое акционерное общество "Омский аэропорт". Нкр.=(600)м. PCN: 50/F/C/X/T. Военный индекс: XNOO / ЬНОО.
Погода: 

Авиационная погода в аэропорту Центральный

Регион: 
Погода METAR: 
UNOO 221800Z 14002MPS 6000 NSC M19/M22 Q1034 R07/810550 NOSIG RMK QFE767
Время наблюдения
2022-01-22T18:00:00Z
Температура C
-19.0
Точка росы
-22.0
Направление ветра
140
Скорость ветра (узлы)
4
Метео видимость
3.73
Облачность
CLR
Нижняя граница облачности (футы)
Явления погоды
Условия полета
MVFR
Аэропорт подробнее: 
CLR — нет облаков ниже 3000 м

Найти трансфер

С помощью этой формы Вы можете найти трансфер из аэропорта Центральный в город, аэропорт или вокзал:

Погода в аэропортах:

Авиационная погода в Берлевоге

Регион: 
Погода METAR: 
ENBV 221150Z 23036G47KT 9999 BLSN SCT040 BKN053 M06/M09 Q1002
Время наблюдения
2022-01-22T11:50:00Z
Температура C
-6.0
Точка росы
-9.0
Направление ветра
230
Скорость ветра (узлы)
36
Метео видимость
6.21
Облачность
SCT
BKN
Нижняя граница облачности (футы)
4000
5300
Явления погоды
BLSN
Условия полета
VFR
SCT – разбросанная отдельная облачность; BKN – значительная (рассеянная, разорванная) облачность;
BLSN – метель низовая или общая;

Авиационная погода в Москва - Внуково

Погода METAR: 
UUWW 221800Z 09003MPS 3900 -SN FEW009 BKN026 M04/M06 Q1011 R01/490537 TEMPO 1100 SHSN BKN012CB
Время наблюдения
2022-01-22T18:00:00Z
Температура C
-4.0
Точка росы
-6.0
Направление ветра
90
Скорость ветра (узлы)
6
Метео видимость
2.42
Облачность
FEW
BKN
Нижняя граница облачности (футы)
900
2600
Явления погоды
-SN
Условия полета
IFR
Аэропорт подробнее: 
FEW – незначительная облачность; BKN – значительная (рассеянная, разорванная) облачность;
-SN – слабый снег;

Авиационная погода в Могилёве

Регион: 
Погода METAR: 
UMOO 221200Z 30005MPS 2100 -SHSN OVC030CB M04/M07 Q1007 NOSIG
Время наблюдения
2022-01-22T12:00:00Z
Температура C
-4.0
Точка росы
-7.0
Направление ветра
300
Скорость ветра (узлы)
10
Метео видимость
1.3
Облачность
OVC
Нижняя граница облачности (футы)
3000
Явления погоды
-SHSN
Условия полета
IFR
Аэропорт подробнее: 
OVC – сплошная облачность;
-SHSN - слабый ливневой снег;

Авиационная погода в Челябинске

Регион: 
Погода METAR: 
USCC 221800Z 11001MPS 2800 BR FU NSC M21/M24 Q1030 R27/420350 NOSIG RMK QFE752
Время наблюдения
2022-01-22T18:00:00Z
Температура C
-21.0
Точка росы
-24.0
Направление ветра
110
Скорость ветра (узлы)
2
Метео видимость
1.74
Облачность
CLR
Нижняя граница облачности (футы)
Явления погоды
BR FU
Условия полета
IFR
Аэропорт подробнее: 
CLR — нет облаков ниже 3000 м
BR – дымка (видимость от 1 до 9 км); FU – дым (видимость менее 10 км);